Time;durP1;ratioP1;P1;durP2;ratioP2;P2;SDS_P1;SDS_P2;PMS_P1;PMS_P2;Temp;Humidity;BMP_temperature;BMP_pressure;BME280_temperature;BME280_humidity;BME280_pressure;Samples;Min_cycle;Max_cycle;Signal;HPM_P1;HPM_P2
2021/12/07 00:00:20;;;;;;;2.65;0.88;;;;;;;;;;5056108;28;20077;-64
2021/12/07 00:02:46;;;;;;;3.08;1.20;;;;;;;;;;5073960;28;20043;-60
2021/12/07 00:05:13;;;;;;;5.82;1.60;;;;;;;;;;5073914;28;20032;-64
2021/12/07 00:07:42;;;;;;;6.80;1.35;;;;;;;;;;5055927;28;20039;-64
2021/12/07 00:10:08;;;;;;;5.63;1.33;;;;;;;;;;5073193;28;20040;-64
2021/12/07 00:12:38;;;;;;;4.78;1.40;;;;;;;;;;5073688;28;20063;-64
2021/12/07 00:15:04;;;;;;;3.50;1.30;;;;;;;;;;5061202;28;20136;-64
2021/12/07 00:17:31;;;;;;;4.07;1.27;;;;;;;;;;5053692;28;20021;-63
2021/12/07 00:19:57;;;;;;;8.77;1.30;;;;;;;;;;5053473;28;20048;-62
2021/12/07 00:22:23;;;;;;;5.32;1.30;;;;;;;;;;5053757;28;20595;-63
2021/12/07 00:24:49;;;;;;;5.43;1.38;;;;;;;;;;5035845;28;20124;-63
2021/12/07 00:27:15;;;;;;;9.75;1.60;;;;;;;;;;5053563;28;20021;-64
2021/12/07 00:29:41;;;;;;;7.43;1.50;;;;;;;;;;5053572;28;20054;-63
2021/12/07 00:35:01;;;;;;;7.45;1.48;;;;;;;;;;5053496;28;20110;-64
2021/12/07 00:37:30;;;;;;;5.57;1.52;;;;;;;;;;5053301;28;20025;-61
2021/12/07 00:39:57;;;;;;;6.45;1.30;;;;;;;;;;5052894;28;20031;-63
2021/12/07 00:42:23;;;;;;;7.78;1.77;;;;;;;;;;5035394;28;20038;-63
2021/12/07 00:44:49;;;;;;;5.75;1.60;;;;;;;;;;5052648;28;20377;-62
2021/12/07 00:47:16;;;;;;;5.63;1.38;;;;;;;;;;5053114;28;20048;-63
2021/12/07 00:49:42;;;;;;;8.15;1.30;;;;;;;;;;5053110;28;20028;-62
2021/12/07 00:52:09;;;;;;;8.98;1.65;;;;;;;;;;5052964;28;20025;-64
2021/12/07 00:54:35;;;;;;;3.67;1.30;;;;;;;;;;5053312;28;20025;-63
2021/12/07 00:57:02;;;;;;;5.03;1.33;;;;;;;;;;5053002;28;20052;-63
2021/12/07 00:59:28;;;;;;;8.02;1.30;;;;;;;;;;5053039;28;20104;-63
2021/12/07 01:01:54;;;;;;;4.90;1.27;;;;;;;;;;5053206;28;20071;-62
2021/12/07 01:04:20;;;;;;;9.10;1.92;;;;;;;;;;5052887;28;20021;-64
2021/12/07 01:07:00;;;;;;;5.55;1.75;;;;;;;;;;5052824;28;20752;-62
2021/12/07 01:25:52;;;;;;;6.18;1.80;;;;;;;;;;5053072;28;20468;-63
2021/12/07 01:45:01;;;;;;;17.90;2.35;;;;;;;;;;5052958;28;20116;-64
2021/12/07 02:01:12;;;;;;;10.88;1.85;;;;;;;;;;4994998;28;20134;-64
2021/12/07 02:03:39;;;;;;;6.32;1.50;;;;;;;;;;5025545;28;20076;-64
2021/12/07 02:06:10;;;;;;;3.67;1.23;;;;;;;;;;5056280;28;20071;-63
2021/12/07 02:08:36;;;;;;;7.15;1.77;;;;;;;;;;5056294;28;20017;-64
2021/12/07 02:11:03;;;;;;;9.02;1.55;;;;;;;;;;5056164;28;20028;-62
2021/12/07 02:15:56;;;;;;;6.97;1.40;;;;;;;;;;5075031;28;20384;-64
2021/12/07 02:18:22;;;;;;;8.00;1.70;;;;;;;;;;5075729;28;20391;-63
2021/12/07 02:20:48;;;;;;;7.20;1.50;;;;;;;;;;5075390;28;20020;-62
2021/12/07 02:23:15;;;;;;;8.70;1.80;;;;;;;;;;5076025;28;20029;-62
2021/12/07 02:25:41;;;;;;;8.13;1.70;;;;;;;;;;5058007;28;20067;-63
2021/12/07 02:28:12;;;;;;;4.75;1.30;;;;;;;;;;5075653;28;20048;-64
2021/12/07 02:30:38;;;;;;;7.40;1.52;;;;;;;;;;5075855;28;20035;-63
2021/12/07 02:33:05;;;;;;;6.57;1.40;;;;;;;;;;5075724;28;20079;-63
2021/12/07 02:35:31;;;;;;;8.05;1.50;;;;;;;;;;5075618;28;20033;-64
2021/12/07 02:37:58;;;;;;;5.65;1.50;;;;;;;;;;5075546;28;20024;-64
2021/12/07 02:40:24;;;;;;;7.10;1.60;;;;;;;;;;5075677;28;20046;-64
2021/12/07 02:42:51;;;;;;;7.72;1.60;;;;;;;;;;5075298;28;20020;-63
2021/12/07 02:45:17;;;;;;;5.72;1.40;;;;;;;;;;5075546;28;20021;-63
2021/12/07 02:47:44;;;;;;;6.03;1.50;;;;;;;;;;5075225;28;20024;-64
2021/12/07 02:50:10;;;;;;;3.55;1.33;;;;;;;;;;5075164;28;20090;-64
2021/12/07 02:52:37;;;;;;;9.20;1.92;;;;;;;;;;5075406;28;20046;-63
2021/12/07 02:55:03;;;;;;;6.60;1.63;;;;;;;;;;5075187;28;20086;-62
2021/12/07 02:57:30;;;;;;;7.45;1.60;;;;;;;;;;5075499;28;20112;-63
2021/12/07 03:00:06;;;;;;;5.43;1.35;;;;;;;;;;5075122;28;20387;-62
2021/12/07 03:02:37;;;;;;;5.57;1.17;;;;;;;;;;5075089;28;20047;-64
2021/12/07 03:05:14;;;;;;;5.32;1.30;;;;;;;;;;5074539;28;20453;-62
2021/12/07 03:08:41;;;;;;;6.82;1.70;;;;;;;;;;5075598;28;20064;-63
2021/12/07 03:27:01;;;;;;;5.38;1.40;;;;;;;;;;5055026;28;20079;-64
2021/12/07 03:29:27;;;;;;;7.28;1.40;;;;;;;;;;5054622;28;20021;-64
2021/12/07 03:31:53;;;;;;;5.80;1.63;;;;;;;;;;5054598;28;20040;-63
2021/12/07 03:34:19;;;;;;;4.05;1.27;;;;;;;;;;5054366;28;20037;-64
2021/12/07 03:36:45;;;;;;;5.65;1.55;;;;;;;;;;5054590;28;20464;-60
2021/12/07 03:39:11;;;;;;;5.28;1.35;;;;;;;;;;5054658;28;20025;-64
2021/12/07 03:41:37;;;;;;;5.05;1.20;;;;;;;;;;5054649;28;20021;-62
2021/12/07 03:44:04;;;;;;;3.72;1.23;;;;;;;;;;5054297;28;20021;-63
2021/12/07 03:46:30;;;;;;;8.38;1.33;;;;;;;;;;5054392;28;20107;-64
2021/12/07 03:48:56;;;;;;;7.28;1.10;;;;;;;;;;5054373;28;20029;-64
2021/12/07 03:51:22;;;;;;;4.00;1.40;;;;;;;;;;5054238;28;20040;-64
2021/12/07 03:53:48;;;;;;;5.38;1.38;;;;;;;;;;5054379;28;20025;-63
2021/12/07 03:56:15;;;;;;;4.07;1.48;;;;;;;;;;5055382;28;20131;-62
2021/12/07 03:58:41;;;;;;;4.63;1.33;;;;;;;;;;5074293;28;20048;-62
2021/12/07 04:01:10;;;;;;;6.25;1.60;;;;;;;;;;5074150;28;20480;-62
2021/12/07 04:03:36;;;;;;;4.90;1.70;;;;;;;;;;5074210;28;20028;-63
2021/12/07 04:06:07;;;;;;;4.80;1.45;;;;;;;;;;5072958;28;20021;-64
2021/12/07 04:08:34;;;;;;;5.53;1.63;;;;;;;;;;5073311;28;20471;-62
2021/12/07 04:11:00;;;;;;;6.18;1.23;;;;;;;;;;5073482;28;20024;-63
2021/12/07 04:13:26;;;;;;;5.20;1.23;;;;;;;;;;5073565;28;20029;-63
2021/12/07 04:15:52;;;;;;;3.90;1.20;;;;;;;;;;5053778;28;20488;-62
2021/12/07 04:18:19;;;;;;;3.85;1.17;;;;;;;;;;5053698;28;20032;-63
2021/12/07 04:20:45;;;;;;;18.25;1.85;;;;;;;;;;5053560;28;20029;-60
2021/12/07 04:23:11;;;;;;;9.80;1.77;;;;;;;;;;5053642;28;20045;-63
2021/12/07 04:25:37;;;;;;;4.82;1.20;;;;;;;;;;5053683;28;20036;-64
2021/12/07 04:28:04;;;;;;;3.50;1.00;;;;;;;;;;5052838;28;20043;-63
2021/12/07 04:30:32;;;;;;;3.72;1.40;;;;;;;;;;5035408;28;20137;-63
2021/12/07 04:32:58;;;;;;;5.35;1.48;;;;;;;;;;5053433;28;20029;-64
2021/12/07 04:35:26;;;;;;;6.80;1.27;;;;;;;;;;5053348;28;20407;-64
2021/12/07 04:37:52;;;;;;;9.68;1.30;;;;;;;;;;5053342;28;20025;-62
2021/12/07 04:40:20;;;;;;;4.55;1.25;;;;;;;;;;5035607;28;20025;-64
2021/12/07 04:42:47;;;;;;;5.20;1.35;;;;;;;;;;5052976;28;20021;-62
2021/12/07 04:45:34;;;;;;;5.35;1.55;;;;;;;;;;5052772;28;20503;-64
2021/12/07 04:58:59;;;;;;;5.32;1.30;;;;;;;;;;5048122;28;20127;-63
2021/12/07 05:01:25;;;;;;;6.05;1.30;;;;;;;;;;5052223;28;20107;-63
2021/12/07 05:03:56;;;;;;;6.63;1.13;;;;;;;;;;5052199;28;20021;-62
2021/12/07 05:06:26;;;;;;;4.18;0.93;;;;;;;;;;5052707;28;20487;-64
2021/12/07 05:09:01;;;;;;;4.22;1.10;;;;;;;;;;5052629;28;20052;-63
2021/12/07 05:11:44;;;;;;;3.92;1.20;;;;;;;;;;5034294;28;20044;-64
2021/12/07 05:38:21;;;;;;;3.67;1.20;;;;;;;;;;5072981;28;20085;-63
2021/12/07 05:40:47;;;;;;;4.22;1.10;;;;;;;;;;5054671;28;20032;-60
2021/12/07 05:43:13;;;;;;;3.75;0.90;;;;;;;;;;5072540;28;20110;-62
2021/12/07 05:45:39;;;;;;;3.10;1.10;;;;;;;;;;5072383;28;20027;-63
2021/12/07 05:48:06;;;;;;;4.10;1.45;;;;;;;;;;5072604;28;20036;-63
2021/12/07 05:50:34;;;;;;;3.67;1.20;;;;;;;;;;5054692;28;20445;-63
2021/12/07 05:53:00;;;;;;;5.45;1.40;;;;;;;;;;5072701;28;20024;-63
2021/12/07 05:55:26;;;;;;;4.25;1.05;;;;;;;;;;5072699;28;20098;-63
2021/12/07 05:57:53;;;;;;;3.15;1.10;;;;;;;;;;5072382;28;20087;-62
2021/12/07 06:00:26;;;;;;;4.10;1.17;;;;;;;;;;5072671;28;20020;-63
2021/12/07 06:02:53;;;;;;;2.60;1.02;;;;;;;;;;5072477;28;20107;-63
2021/12/07 06:05:20;;;;;;;3.22;1.02;;;;;;;;;;5072510;28;20418;-64
2021/12/07 06:07:46;;;;;;;2.80;1.00;;;;;;;;;;5059356;28;20060;-61
2021/12/07 06:10:12;;;;;;;2.83;0.98;;;;;;;;;;5052425;28;20060;-62
2021/12/07 06:12:38;;;;;;;2.10;0.90;;;;;;;;;;5050762;28;20026;-64
2021/12/07 06:15:05;;;;;;;3.97;1.10;;;;;;;;;;5052143;28;20053;-64
2021/12/07 06:17:31;;;;;;;2.83;1.02;;;;;;;;;;5050944;28;20025;-64
2021/12/07 06:19:57;;;;;;;2.53;0.90;;;;;;;;;;5068398;28;20369;-63
2021/12/07 06:22:23;;;;;;;4.07;1.10;;;;;;;;;;5071399;28;20037;-63
2021/12/07 06:24:49;;;;;;;2.25;0.68;;;;;;;;;;5072174;28;20103;-63
2021/12/07 06:27:15;;;;;;;2.35;1.13;;;;;;;;;;5072290;28;20427;-63
2021/12/07 06:29:41;;;;;;;3.88;1.10;;;;;;;;;;5072103;28;20037;-62
2021/12/07 06:32:07;;;;;;;3.67;1.02;;;;;;;;;;5072193;28;20437;-64
2021/12/07 06:34:33;;;;;;;1.77;0.80;;;;;;;;;;5072081;28;20077;-64
2021/12/07 06:37:00;;;;;;;3.45;0.85;;;;;;;;;;5072070;28;20025;-64
2021/12/07 06:39:26;;;;;;;3.72;1.00;;;;;;;;;;5074115;28;20052;-64
2021/12/07 06:41:52;;;;;;;2.58;1.05;;;;;;;;;;5075464;28;20444;-62
2021/12/07 06:44:19;;;;;;;3.97;1.10;;;;;;;;;;5075668;28;20070;-63
2021/12/07 06:46:48;;;;;;;3.65;1.00;;;;;;;;;;5075539;28;20510;-62
2021/12/07 06:49:14;;;;;;;2.17;1.00;;;;;;;;;;5075663;28;20017;-63
2021/12/07 06:51:40;;;;;;;3.35;1.00;;;;;;;;;;5075225;28;20033;-63
2021/12/07 06:54:06;;;;;;;2.38;1.00;;;;;;;;;;5075122;28;20032;-64
2021/12/07 06:56:32;;;;;;;5.15;0.98;;;;;;;;;;5075128;28;20075;-64
2021/12/07 06:58:58;;;;;;;6.63;1.00;;;;;;;;;;5075425;28;20030;-62
2021/12/07 07:01:24;;;;;;;15.50;1.60;;;;;;;;;;5075169;28;20036;-60
2021/12/07 07:03:50;;;;;;;8.20;1.25;;;;;;;;;;5075011;28;20655;-62
2021/12/07 07:06:16;;;;;;;7.97;1.15;;;;;;;;;;5075096;28;20028;-63
2021/12/07 07:08:42;;;;;;;21.75;1.27;;;;;;;;;;5075073;28;20035;-62
2021/12/07 07:11:08;;;;;;;4.00;1.10;;;;;;;;;;5074868;28;20016;-62
2021/12/07 07:13:34;;;;;;;7.32;1.38;;;;;;;;;;5087802;28;20032;-62
2021/12/07 07:16:00;;;;;;;3.13;0.90;;;;;;;;;;5076771;28;20047;-62
2021/12/07 07:18:26;;;;;;;3.95;1.05;;;;;;;;;;5091619;28;20013;-62
2021/12/07 07:20:55;;;;;;;4.43;1.08;;;;;;;;;;5056856;28;20032;-62
2021/12/07 07:23:21;;;;;;;7.15;1.00;;;;;;;;;;5074895;28;20047;-62
2021/12/07 07:25:47;;;;;;;5.82;1.17;;;;;;;;;;5074459;28;20352;-60
2021/12/07 07:28:13;;;;;;;6.80;1.00;;;;;;;;;;5056237;28;20533;-62
2021/12/07 07:30:39;;;;;;;2.53;0.95;;;;;;;;;;5056224;28;20485;-62
2021/12/07 07:33:05;;;;;;;4.38;1.02;;;;;;;;;;5073994;28;20341;-62
2021/12/07 07:35:31;;;;;;;3.67;1.20;;;;;;;;;;5074181;28;20471;-63
2021/12/07 07:37:57;;;;;;;4.75;1.20;;;;;;;;;;5074294;28;20016;-63
2021/12/07 07:40:24;;;;;;;3.90;1.30;;;;;;;;;;5055929;28;20094;-61
2021/12/07 07:42:50;;;;;;;4.20;1.00;;;;;;;;;;5074232;28;20537;-64
2021/12/07 07:45:17;;;;;;;8.68;1.50;;;;;;;;;;5074518;28;20063;-64
2021/12/07 07:47:43;;;;;;;4.72;0.98;;;;;;;;;;5074484;28;20024;-64
2021/12/07 07:50:11;;;;;;;18.05;1.50;;;;;;;;;;5055711;28;20060;-65
2021/12/07 07:52:37;;;;;;;8.27;1.15;;;;;;;;;;5073752;28;20027;-64
2021/12/07 07:55:03;;;;;;;49.20;1.80;;;;;;;;;;5073726;28;20037;-60
2021/12/07 07:57:29;;;;;;;20.00;2.08;;;;;;;;;;5074110;28;20029;-67
2021/12/07 07:59:56;;;;;;;13.40;1.63;;;;;;;;;;5055556;28;20042;-64
2021/12/07 08:02:22;;;;;;;21.50;1.55;;;;;;;;;;5073718;28;20440;-63
2021/12/07 08:04:48;;;;;;;7.57;1.25;;;;;;;;;;5073629;28;20031;-64
2021/12/07 08:07:14;;;;;;;12.27;1.17;;;;;;;;;;5073424;28;20021;-64
2021/12/07 08:09:40;;;;;;;12.15;1.40;;;;;;;;;;5073547;28;20031;-65
2021/12/07 08:12:06;;;;;;;10.65;1.35;;;;;;;;;;5072906;28;20034;-65
2021/12/07 08:14:33;;;;;;;7.25;1.40;;;;;;;;;;5073164;28;20054;-63
2021/12/07 08:16:59;;;;;;;7.40;1.40;;;;;;;;;;5072645;28;20460;-64
2021/12/07 08:19:25;;;;;;;7.35;1.20;;;;;;;;;;5072787;28;20033;-64
2021/12/07 08:21:51;;;;;;;8.68;1.40;;;;;;;;;;5072945;28;20403;-64
2021/12/07 08:24:17;;;;;;;10.43;1.52;;;;;;;;;;5073113;28;20474;-64
2021/12/07 08:26:43;;;;;;;12.25;1.25;;;;;;;;;;5073245;28;20104;-65
2021/12/07 08:29:09;;;;;;;3.70;1.20;;;;;;;;;;5072410;28;20064;-64
2021/12/07 08:31:35;;;;;;;8.40;1.27;;;;;;;;;;5072899;28;20100;-64
2021/12/07 08:34:01;;;;;;;9.43;1.27;;;;;;;;;;5072977;28;20069;-62
2021/12/07 08:36:28;;;;;;;4.07;1.20;;;;;;;;;;5073128;28;20037;-64
2021/12/07 08:38:54;;;;;;;6.82;1.30;;;;;;;;;;5073460;28;20075;-65
2021/12/07 08:41:20;;;;;;;6.85;1.40;;;;;;;;;;5073301;28;20166;-65
2021/12/07 08:43:47;;;;;;;4.72;1.30;;;;;;;;;;5073233;28;20119;-64
2021/12/07 08:46:14;;;;;;;3.67;1.23;;;;;;;;;;5072552;28;20101;-64
2021/12/07 08:48:42;;;;;;;4.00;1.33;;;;;;;;;;5073179;28;20032;-63
2021/12/07 08:51:08;;;;;;;10.07;1.60;;;;;;;;;;5073091;28;20028;-61
2021/12/07 08:53:37;;;;;;;3.88;1.33;;;;;;;;;;5073506;28;20058;-65
2021/12/07 09:01:32;;;;;;;5.53;1.10;;;;;;;;;;5057735;28;20523;-63
2021/12/07 09:04:00;;;;;;;7.75;1.17;;;;;;;;;;5072788;28;20028;-64
2021/12/07 09:06:26;;;;;;;2.40;1.10;;;;;;;;;;5073031;28;20013;-62
2021/12/07 09:08:52;;;;;;;5.47;1.13;;;;;;;;;;5054785;28;20101;-62
2021/12/07 09:11:20;;;;;;;3.70;1.27;;;;;;;;;;5072799;28;20143;-62
2021/12/07 09:13:46;;;;;;;11.40;1.40;;;;;;;;;;5072430;28;20445;-62
2021/12/07 09:16:14;;;;;;;9.05;1.55;;;;;;;;;;5072832;28;20503;-63
2021/12/07 09:18:40;;;;;;;3.15;1.10;;;;;;;;;;5072188;28;20017;-65
2021/12/07 09:21:06;;;;;;;6.28;1.48;;;;;;;;;;5072849;28;20036;-63
2021/12/07 09:23:33;;;;;;;7.97;1.42;;;;;;;;;;5072764;28;20027;-62
2021/12/07 09:25:59;;;;;;;9.25;1.00;;;;;;;;;;5054790;28;20414;-64
2021/12/07 09:28:25;;;;;;;5.00;1.20;;;;;;;;;;5072816;28;20028;-63
2021/12/07 09:30:52;;;;;;;9.63;1.40;;;;;;;;;;5072767;28;20353;-64
2021/12/07 09:33:23;;;;;;;6.30;1.08;;;;;;;;;;5070710;28;20086;-66
2021/12/07 09:35:49;;;;;;;9.45;1.77;;;;;;;;;;5072217;28;20037;-62
2021/12/07 09:38:15;;;;;;;3.33;1.05;;;;;;;;;;5072253;28;20402;-63
2021/12/07 09:40:42;;;;;;;4.80;1.25;;;;;;;;;;5072058;28;20031;-63
2021/12/07 09:43:08;;;;;;;2.92;1.10;;;;;;;;;;5072570;28;20527;-62
2021/12/07 09:45:35;;;;;;;4.40;1.20;;;;;;;;;;5072595;28;20012;-63
2021/12/07 09:48:03;;;;;;;8.85;1.38;;;;;;;;;;5072802;28;20082;-64
2021/12/07 09:50:29;;;;;;;17.70;1.73;;;;;;;;;;5071715;28;20091;-63
2021/12/07 09:52:55;;;;;;;6.75;1.30;;;;;;;;;;5072870;28;20056;-62
2021/12/07 09:55:21;;;;;;;5.32;1.20;;;;;;;;;;5053931;28;20136;-62
2021/12/07 09:57:48;;;;;;;4.43;1.27;;;;;;;;;;5071876;28;20472;-60
2021/12/07 10:00:15;;;;;;;7.80;1.30;;;;;;;;;;5071980;28;20033;-65
2021/12/07 10:02:41;;;;;;;3.28;1.20;;;;;;;;;;5054059;28;20086;-61
2021/12/07 10:05:08;;;;;;;8.00;1.17;;;;;;;;;;5071836;28;20516;-63
2021/12/07 10:07:37;;;;;;;5.00;1.25;;;;;;;;;;5071810;28;20107;-63
2021/12/07 10:10:04;;;;;;;4.40;1.30;;;;;;;;;;5071507;28;20035;-63
2021/12/07 10:12:30;;;;;;;3.08;1.15;;;;;;;;;;5071229;28;20104;-63
2021/12/07 10:15:04;;;;;;;8.07;1.65;;;;;;;;;;5062902;28;20147;-63
2021/12/07 10:17:30;;;;;;;3.80;1.40;;;;;;;;;;5055277;28;20362;-63
2021/12/07 10:19:56;;;;;;;5.03;1.40;;;;;;;;;;5055247;28;20503;-63
2021/12/07 10:22:22;;;;;;;5.63;1.50;;;;;;;;;;5055791;28;20021;-65
2021/12/07 10:24:50;;;;;;;5.85;1.35;;;;;;;;;;5037199;28;20032;-65
2021/12/07 10:27:34;;;;;;;6.18;1.30;;;;;;;;;;5055354;28;20083;-66
2021/12/07 10:30:02;;;;;;;6.15;1.67;;;;;;;;;;5055077;28;20075;-65
2021/12/07 10:32:28;;;;;;;10.40;1.35;;;;;;;;;;5055348;28;20068;-66
2021/12/07 10:34:54;;;;;;;12.13;1.40;;;;;;;;;;5055250;28;20445;-66
2021/12/07 10:37:20;;;;;;;6.28;1.45;;;;;;;;;;5037221;28;20024;-65
2021/12/07 10:39:50;;;;;;;6.07;1.67;;;;;;;;;;5055499;28;20025;-63
2021/12/07 10:42:18;;;;;;;5.57;1.20;;;;;;;;;;5017767;28;20181;-63
2021/12/07 10:44:44;;;;;;;4.85;1.50;;;;;;;;;;5020922;28;20483;-62
2021/12/07 10:47:12;;;;;;;6.97;1.27;;;;;;;;;;5054564;28;20805;-65
2021/12/07 10:49:42;;;;;;;6.80;1.30;;;;;;;;;;5055095;28;20021;-63
2021/12/07 10:52:11;;;;;;;9.68;1.00;;;;;;;;;;5054686;28;20021;-63
2021/12/07 10:54:39;;;;;;;4.72;1.60;;;;;;;;;;5054655;28;20033;-63
2021/12/07 10:57:06;;;;;;;6.40;1.67;;;;;;;;;;5054708;28;20044;-61
2021/12/07 10:59:33;;;;;;;9.65;1.60;;;;;;;;;;5072708;28;20112;-64
2021/12/07 11:01:59;;;;;;;3.30;1.15;;;;;;;;;;5074536;28;20106;-63
2021/12/07 11:04:28;;;;;;;3.70;1.10;;;;;;;;;;5074677;28;20020;-64
2021/12/07 11:07:07;;;;;;;5.88;1.13;;;;;;;;;;5074872;28;20047;-63
2021/12/07 11:09:42;;;;;;;9.80;1.73;;;;;;;;;;5074586;28;20099;-63
2021/12/07 11:12:09;;;;;;;7.72;1.08;;;;;;;;;;5074289;28;20028;-62
2021/12/07 11:14:58;;;;;;;7.57;1.60;;;;;;;;;;5079358;28;20044;-62
2021/12/07 11:17:26;;;;;;;15.38;1.70;;;;;;;;;;5074678;28;20025;-63
2021/12/07 11:19:52;;;;;;;4.95;1.52;;;;;;;;;;5056411;28;20059;-62
2021/12/07 11:22:20;;;;;;;5.57;1.65;;;;;;;;;;5074331;28;20052;-62
2021/12/07 11:24:47;;;;;;;5.90;1.30;;;;;;;;;;5073637;28;20024;-62
2021/12/07 11:30:05;;;;;;;9.50;1.30;;;;;;;;;;5074141;28;20475;-64
2021/12/07 11:32:31;;;;;;;4.22;1.40;;;;;;;;;;5074374;28;20031;-63
2021/12/07 11:35:07;;;;;;;6.78;1.38;;;;;;;;;;5073987;28;20032;-63
2021/12/07 11:37:38;;;;;;;7.13;1.85;;;;;;;;;;5074176;28;20112;-64
2021/12/07 11:40:05;;;;;;;5.43;1.48;;;;;;;;;;5073812;28;20027;-64
2021/12/07 11:42:36;;;;;;;9.32;1.60;;;;;;;;;;5074127;28;20071;-64
2021/12/07 11:45:34;;;;;;;7.13;1.73;;;;;;;;;;5073739;28;20039;-64
2021/12/07 11:48:05;;;;;;;11.30;1.85;;;;;;;;;;5033001;28;20365;-63
2021/12/07 11:50:51;;;;;;;10.65;1.20;;;;;;;;;;5055819;28;20436;-64
2021/12/07 11:53:20;;;;;;;6.93;1.52;;;;;;;;;;5073662;28;20465;-71
2021/12/07 11:55:47;;;;;;;3.35;1.17;;;;;;;;;;5073663;28;20033;-68
2021/12/07 11:58:14;;;;;;;8.38;1.45;;;;;;;;;;5073814;28;20024;-66
2021/12/07 12:00:41;;;;;;;8.00;1.63;;;;;;;;;;5072593;28;20035;-64
2021/12/07 12:03:09;;;;;;;9.75;1.85;;;;;;;;;;5055018;28;20070;-63
2021/12/07 12:05:36;;;;;;;7.68;2.08;;;;;;;;;;5072263;28;20059;-63
2021/12/07 12:08:07;;;;;;;8.63;1.77;;;;;;;;;;5072790;28;20034;-64
2021/12/07 12:10:33;;;;;;;3.33;1.33;;;;;;;;;;5072962;28;20024;-63
2021/12/07 12:13:16;;;;;;;7.18;1.67;;;;;;;;;;5054582;28;20526;-64
2021/12/07 12:15:48;;;;;;;11.23;2.00;;;;;;;;;;5071735;28;20044;-66
2021/12/07 12:18:33;;;;;;;6.45;1.65;;;;;;;;;;5073137;28;20035;-64
2021/12/07 12:21:10;;;;;;;5.95;1.77;;;;;;;;;;5055189;28;20059;-63
2021/12/07 12:23:39;;;;;;;8.35;1.85;;;;;;;;;;5073076;28;20021;-63
2021/12/07 12:26:07;;;;;;;7.82;1.73;;;;;;;;;;5072833;28;20020;-64
2021/12/07 12:28:37;;;;;;;7.20;1.80;;;;;;;;;;5073139;28;20055;-63
2021/12/07 12:31:04;;;;;;;7.63;2.05;;;;;;;;;;5072787;28;20464;-64
2021/12/07 12:33:44;;;;;;;6.18;2.15;;;;;;;;;;5072126;28;20037;-63
2021/12/07 12:36:10;;;;;;;6.13;1.92;;;;;;;;;;5071671;28;20514;-62
2021/12/07 12:38:36;;;;;;;8.02;2.10;;;;;;;;;;5073042;28;20025;-63
2021/12/07 12:41:02;;;;;;;6.80;1.88;;;;;;;;;;5072718;28;20050;-64
2021/12/07 12:43:47;;;;;;;4.68;2.00;;;;;;;;;;5072466;28;20101;-64
2021/12/07 12:46:15;;;;;;;7.20;2.08;;;;;;;;;;5071820;28;20031;-63
2021/12/07 12:48:48;;;;;;;8.85;1.90;;;;;;;;;;5072228;28;20160;-64
2021/12/07 12:51:14;;;;;;;6.85;2.25;;;;;;;;;;5072054;28;20055;-63
2021/12/07 12:53:41;;;;;;;6.28;1.88;;;;;;;;;;5072522;28;20020;-63
2021/12/07 12:56:09;;;;;;;10.52;2.30;;;;;;;;;;5072368;28;20029;-63
2021/12/07 12:58:38;;;;;;;7.15;2.20;;;;;;;;;;5072398;28;20139;-64
2021/12/07 13:01:08;;;;;;;10.02;2.80;;;;;;;;;;5072440;28;20447;-67
2021/12/07 13:03:43;;;;;;;10.23;2.47;;;;;;;;;;5072670;28;20063;-63
2021/12/07 13:06:15;;;;;;;7.43;2.60;;;;;;;;;;5072034;28;20089;-64
2021/12/07 13:08:53;;;;;;;6.70;2.38;;;;;;;;;;5072603;28;20021;-66
2021/12/07 13:11:37;;;;;;;9.60;2.38;;;;;;;;;;5071419;28;20020;-63
2021/12/07 13:14:10;;;;;;;8.30;2.22;;;;;;;;;;5070443;28;20488;-63
2021/12/07 13:16:36;;;;;;;;;;;;;;;;;;5072640;28;20043;-66
2021/12/07 13:19:06;;;;;;;8.80;1.90;;;;;;;;;;5072252;28;19908;-63
2021/12/07 13:21:36;;;;;;;7.90;2.13;;;;;;;;;;5072482;28;20025;-64
2021/12/07 13:24:03;;;;;;;6.07;2.00;;;;;;;;;;5072072;28;20036;-63
2021/12/07 13:26:40;;;;;;;8.55;2.55;;;;;;;;;;5072096;28;20358;-65
2021/12/07 13:29:16;;;;;;;7.95;2.13;;;;;;;;;;5054419;28;20037;-61
2021/12/07 13:31:46;;;;;;;5.75;2.10;;;;;;;;;;5071968;28;20033;-61
2021/12/07 13:34:15;;;;;;;9.05;2.30;;;;;;;;;;5071953;28;20032;-62
2021/12/07 13:36:59;;;;;;;8.25;2.28;;;;;;;;;;5072047;28;20033;-64
2021/12/07 13:39:25;;;;;;;13.70;2.50;;;;;;;;;;5072178;28;20029;-65
2021/12/07 13:41:50;;;;;;;10.10;1.95;;;;;;;;;;5071544;28;20036;-67
2021/12/07 13:44:17;;;;;;;13.32;2.28;;;;;;;;;;5071592;28;20025;-62
2021/12/07 13:46:43;;;;;;;7.03;1.95;;;;;;;;;;5054095;28;20028;-62
2021/12/07 13:49:11;;;;;;;12.77;2.53;;;;;;;;;;5076252;28;20092;-62
2021/12/07 13:51:37;;;;;;;9.80;2.38;;;;;;;;;;5076290;28;20082;-63
2021/12/07 13:54:04;;;;;;;18.35;1.90;;;;;;;;;;5073362;28;20028;-63
2021/12/07 13:56:40;;;;;;;3.88;1.60;;;;;;;;;;5075249;28;20468;-61
2021/12/07 13:59:11;;;;;;;7.00;1.92;;;;;;;;;;5076002;28;20108;-65
2021/12/07 14:01:38;;;;;;;7.72;1.75;;;;;;;;;;5075069;28;20025;-62
2021/12/07 14:04:05;;;;;;;5.80;1.80;;;;;;;;;;5075988;28;20053;-63
2021/12/07 14:06:32;;;;;;;10.55;1.98;;;;;;;;;;5076248;28;20097;-64
2021/12/07 14:09:03;;;;;;;6.13;1.75;;;;;;;;;;5073995;28;20136;-63
2021/12/07 14:11:29;;;;;;;5.78;1.50;;;;;;;;;;5076335;28;20074;-61
2021/12/07 14:13:55;;;;;;;6.95;1.92;;;;;;;;;;5075901;28;20028;-64
2021/12/07 14:16:23;;;;;;;10.25;1.85;;;;;;;;;;5075721;28;20033;-64
2021/12/07 14:18:50;;;;;;;6.80;1.63;;;;;;;;;;5075414;28;20459;-61
2021/12/07 14:21:16;;;;;;;5.50;1.48;;;;;;;;;;5076019;28;20025;-63
2021/12/07 14:23:43;;;;;;;5.18;1.60;;;;;;;;;;5075682;28;20040;-64
2021/12/07 14:26:16;;;;;;;4.13;1.63;;;;;;;;;;5075032;28;20028;-64
2021/12/07 14:28:45;;;;;;;8.38;1.50;;;;;;;;;;5075908;28;20039;-64
2021/12/07 14:31:12;;;;;;;5.68;1.63;;;;;;;;;;5075840;28;20021;-64
2021/12/07 14:33:40;;;;;;;5.38;1.67;;;;;;;;;;5075541;28;20027;-64
2021/12/07 14:36:06;;;;;;;3.17;1.48;;;;;;;;;;5075715;28;20037;-63
2021/12/07 14:38:33;;;;;;;4.82;1.40;;;;;;;;;;5075687;28;20103;-63
2021/12/07 14:41:03;;;;;;;5.43;1.50;;;;;;;;;;5075128;28;20021;-63
2021/12/07 14:43:30;;;;;;;6.80;1.63;;;;;;;;;;5075075;28;20028;-63
2021/12/07 14:46:00;;;;;;;4.47;1.50;;;;;;;;;;5075615;28;20020;-62
2021/12/07 14:48:26;;;;;;;3.63;1.20;;;;;;;;;;5075349;28;20020;-62
2021/12/07 14:50:52;;;;;;;4.10;1.42;;;;;;;;;;5074714;28;20032;-64
2021/12/07 14:53:31;;;;;;;5.95;1.52;;;;;;;;;;5074422;28;20348;-63
2021/12/07 14:55:57;;;;;;;3.67;1.13;;;;;;;;;;5074872;28;20033;-62
2021/12/07 14:58:29;;;;;;;5.88;1.33;;;;;;;;;;5074990;28;20024;-64
2021/12/07 15:00:55;;;;;;;3.53;1.30;;;;;;;;;;5074648;28;20064;-63
2021/12/07 15:03:21;;;;;;;3.50;1.40;;;;;;;;;;5057075;28;20052;-63
2021/12/07 15:05:47;;;;;;;3.08;0.98;;;;;;;;;;5074663;28;20021;-61
2021/12/07 15:08:13;;;;;;;2.53;1.13;;;;;;;;;;5050451;28;20539;-64
2021/12/07 15:10:39;;;;;;;2.85;1.35;;;;;;;;;;5054479;28;20082;-62
2021/12/07 15:13:05;;;;;;;4.82;1.30;;;;;;;;;;5054334;28;20052;-63
2021/12/07 15:15:31;;;;;;;3.08;1.27;;;;;;;;;;5053062;28;20471;-63
2021/12/07 15:17:57;;;;;;;4.88;1.27;;;;;;;;;;5054241;28;20095;-64
2021/12/07 15:20:22;;;;;;;4.63;1.30;;;;;;;;;;5053037;28;20603;-66
2021/12/07 15:22:48;;;;;;;4.47;1.52;;;;;;;;;;5020187;28;20064;-63
2021/12/07 15:25:14;;;;;;;3.53;1.27;;;;;;;;;;5054539;28;20082;-63
2021/12/07 15:27:49;;;;;;;3.15;1.10;;;;;;;;;;5054567;28;20024;-63
2021/12/07 15:30:17;;;;;;;3.78;1.20;;;;;;;;;;5054261;28;20053;-62
2021/12/07 15:32:43;;;;;;;3.33;1.10;;;;;;;;;;5052130;28;20029;-62
2021/12/07 15:35:09;;;;;;;3.25;1.30;;;;;;;;;;5053395;28;20025;-61
2021/12/07 15:37:35;;;;;;;4.65;1.10;;;;;;;;;;5052159;28;20029;-62
2021/12/07 15:40:02;;;;;;;1.77;0.90;;;;;;;;;;5053484;28;20032;-62
2021/12/07 15:42:30;;;;;;;2.58;1.27;;;;;;;;;;5068232;28;20032;-61
2021/12/07 15:44:57;;;;;;;2.53;0.93;;;;;;;;;;5073504;28;20074;-61
2021/12/07 15:47:42;;;;;;;2.65;1.20;;;;;;;;;;5074484;28;20452;-64
2021/12/07 15:50:11;;;;;;;4.63;1.30;;;;;;;;;;5074341;28;20480;-64
2021/12/07 15:52:45;;;;;;;6.80;1.48;;;;;;;;;;5074350;28;20017;-64
2021/12/07 15:55:22;;;;;;;8.38;1.38;;;;;;;;;;5056482;28;20032;-65
2021/12/07 15:57:56;;;;;;;4.00;1.60;;;;;;;;;;5074436;28;20036;-64
2021/12/07 16:00:30;;;;;;;3.30;1.25;;;;;;;;;;5056599;28;20020;-65
2021/12/07 16:02:56;;;;;;;4.75;1.42;;;;;;;;;;5074153;28;20083;-64
2021/12/07 16:05:22;;;;;;;4.05;1.40;;;;;;;;;;5074225;28;20807;-63
2021/12/07 16:07:49;;;;;;;5.53;1.20;;;;;;;;;;5073990;28;20032;-64
2021/12/07 16:10:25;;;;;;;5.20;1.45;;;;;;;;;;5073621;28;20032;-64
2021/12/07 16:13:05;;;;;;;8.38;1.52;;;;;;;;;;5074221;28;20024;-63
2021/12/07 16:15:31;;;;;;;5.93;1.38;;;;;;;;;;5073660;28;20044;-63
2021/12/07 16:17:57;;;;;;;4.50;1.60;;;;;;;;;;5073748;28;20456;-66
2021/12/07 16:20:23;;;;;;;3.47;1.38;;;;;;;;;;5073735;28;20020;-66
2021/12/07 16:22:49;;;;;;;7.28;1.35;;;;;;;;;;5073523;28;20016;-70
2021/12/07 16:25:16;;;;;;;3.42;1.08;;;;;;;;;;5073691;28;20028;-66
2021/12/07 16:27:41;;;;;;;4.28;1.45;;;;;;;;;;5073563;28;20052;-66
2021/12/07 16:30:09;;;;;;;7.45;1.52;;;;;;;;;;5073602;28;20068;-67
2021/12/07 16:32:35;;;;;;;4.15;1.60;;;;;;;;;;5073546;28;20024;-66
2021/12/07 16:35:02;;;;;;;3.90;1.27;;;;;;;;;;5073371;28;20039;-65
2021/12/07 16:37:28;;;;;;;5.43;1.52;;;;;;;;;;5073328;28;20029;-67
2021/12/07 16:39:54;;;;;;;5.38;2.08;;;;;;;;;;5054758;28;20035;-66